Casale Monferrato Airport LILM

Flugplatz Daten

Name: Casale Monferrato Airport

Ident: LILM

Lat: 45,11119843

Long: 8,456029892

Platzhöhe: 377 ft

IataCode:

City: Casale Monferrato

Metar

2017/11/04 22:00
CYXQ 042200Z 00000KT 30SM SKC M05/M08 A3038 RMK CLILMATE -3.8/-6.3/0.0/LAST STFD OBS/NXT 051700Z VIA CYXY SLP332

Taf

Gewünschte Webcam nicht vorhanden? Dann fügen Sie eine hinzu. Sie wird dann so schnell wie möglich freigeschaltet
Url: Title: